Time;durP1;ratioP1;P1;durP2;ratioP2;P2;SDS_P1;SDS_P2;PMS_P1;PMS_P2;Temp;Humidity;BMP_temperature;BMP_pressure;BME280_temperature;BME280_humidity;BME280_pressure;Samples;Min_cycle;Max_cycle;Signal;HPM_P1;HPM_P2
2024/03/24 00:00:02;;;;;;;;;;;;;;;8.13;81.65;94134.56;10381092;28;19953;-80
2024/03/24 00:05:02;;;;;;;;;;;;;;;8.17;84.84;94135.63;10390357;28;20299;-79
2024/03/24 00:10:03;;;;;;;;;;;;;;;8.30;85.51;94128.88;10383749;28;19917;-79
2024/03/24 00:15:04;;;;;;;;;;;;;;;8.47;82.69;94112.50;10372095;28;19920;-80
2024/03/24 00:20:04;;;;;;;;;;;;;;;8.28;84.60;94123.00;10385058;28;20292;-79
2024/03/24 00:25:05;;;;;;;;;;;;;;;8.21;87.30;94117.94;10382442;28;20030;-78
2024/03/24 00:30:07;;;;;;;;;;;;;;;8.29;85.65;94112.03;10381863;28;20316;-79
2024/03/24 00:35:07;;;;;;;;;;;;;;;8.11;86.65;94118.00;10361484;28;19917;-78
2024/03/24 00:40:09;;;;;;;;;;;;;;;8.24;84.16;94109.38;10361668;28;20338;-77
2024/03/24 00:45:09;;;;;;;;;;;;;;;7.85;84.21;94107.34;10380907;28;20354;-78
2024/03/24 00:50:12;;;;;;;;;;;;;;;7.98;86.17;94097.94;10382454;28;19931;-80
2024/03/24 00:55:12;;;;;;;;;;;;;;;7.93;86.64;94084.59;10390318;28;20011;-76
2024/03/24 01:00:12;;;;;;;;;;;;;;;7.93;88.36;94085.38;10376211;28;20339;-80
2024/03/24 01:05:13;;;;;;;;;;;;;;;7.73;84.35;94080.91;10364218;28;19914;-80
2024/03/24 01:10:13;;;;;;;;;;;;;;;7.73;84.08;94066.72;10383547;28;19917;-79
2024/03/24 01:15:13;;;;;;;;;;;;;;;7.81;87.10;94066.16;10371779;28;20713;-79
2024/03/24 01:20:14;;;;;;;;;;;;;;;7.83;85.74;94054.13;10360179;28;20444;-77
2024/03/24 01:25:14;;;;;;;;;;;;;;;7.74;86.02;94047.72;10366467;28;20011;-78
2024/03/24 01:30:14;;;;;;;;;;;;;;;7.82;88.94;94046.38;10366686;28;20386;-77
2024/03/24 01:35:15;;;;;;;;;;;;;;;7.68;90.97;94044.25;10374101;28;20538;-80
2024/03/24 01:40:15;;;;;;;;;;;;;;;7.69;91.45;94040.50;10360481;28;19927;-83
2024/03/24 01:45:16;;;;;;;;;;;;;;;7.79;93.91;94046.91;10372009;28;20344;-80
2024/03/24 01:50:16;;;;;;;;;;;;;;;7.74;93.61;94037.00;10359245;28;19929;-79
2024/03/24 01:55:16;;;;;;;;;;;;;;;7.89;92.45;94033.50;10377289;28;19916;-79
2024/03/24 02:00:17;;;;;;;;;;;;;;;7.64;92.72;94032.50;10373613;28;20016;-79
2024/03/24 02:05:24;;;;;;;;;;;;;;;7.72;93.73;94030.31;10352856;28;19921;-81
2024/03/24 02:10:24;;;;;;;;;;;;;;;7.68;95.07;94041.56;10375612;28;19927;-79
2024/03/24 02:15:24;;;;;;;;;;;;;;;7.60;90.82;94025.28;10376577;28;20582;-80
2024/03/24 02:20:25;;;;;;;;;;;;;;;7.68;96.17;94016.72;10372078;28;19925;-77
2024/03/24 02:25:25;;;;;;;;;;;;;;;7.62;91.31;94009.75;10360270;28;19913;-77
2024/03/24 02:30:25;;;;;;;;;;;;;;;7.62;91.61;94020.47;10368371;28;19925;-79
2024/03/24 02:35:25;;;;;;;;;;;;;;;7.54;92.63;94019.16;10374762;28;19928;-77
2024/03/24 02:40:26;;;;;;;;;;;;;;;7.63;89.57;94014.03;10376826;28;19941;-77
2024/03/24 02:45:26;;;;;;;;;;;;;;;7.77;93.23;94003.56;10372523;28;19929;-77
2024/03/24 02:50:26;;;;;;;;;;;;;;;7.85;88.29;94011.81;10370812;28;19923;-77
2024/03/24 02:55:26;;;;;;;;;;;;;;;8.02;86.32;94010.69;10376364;28;20388;-77
2024/03/24 03:00:27;;;;;;;;;;;;;;;8.25;86.44;94014.59;10375574;28;19927;-77
2024/03/24 03:05:27;;;;;;;0.00;0.00;;;;;;;8.23;83.50;94010.59;10373607;28;20876;-78
2024/03/24 03:10:29;;;;;;;0.00;0.00;;;;;;;8.26;85.19;94005.50;10377051;28;20084;-78
2024/03/24 03:15:30;;;;;;;;;;;;;;;8.29;80.35;94010.31;10377352;28;20419;-78
2024/03/24 03:20:30;;;;;;;;;;;;;;;8.42;85.48;94008.09;10377373;28;20410;-78
2024/03/24 03:25:30;;;;;;;;;;;;;;;8.51;84.26;93998.41;10378498;28;20368;-77
2024/03/24 03:30:31;;;;;;;0.00;0.00;;;;;;;8.38;87.50;94000.59;10375701;28;20554;-79
2024/03/24 03:35:31;;;;;;;0.00;0.00;;;;;;;8.28;91.40;94005.22;10377949;28;20037;-79
2024/03/24 03:40:31;;;;;;;0.00;0.00;;;;;;;8.32;92.54;93999.03;10381221;28;20022;-80
2024/03/24 03:45:32;;;;;;;;;;;;;;;8.28;88.79;94006.00;10378647;28;20437;-79
2024/03/24 03:50:37;;;;;;;;;;;;;;;8.12;87.17;93993.78;10362031;28;19971;-78
2024/03/24 03:55:37;;;;;;;;;;;;;;;8.14;87.79;93978.25;10375701;28;19920;-78
2024/03/24 04:00:38;;;;;;;;;;;;;;;8.10;87.43;93990.59;10361398;28;20414;-81
2024/03/24 04:05:38;;;;;;;;;;;;;;;8.11;90.98;93987.63;10387498;28;19919;-79
2024/03/24 04:10:39;;;;;;;;;;;;;;;8.14;90.43;93976.38;10381474;28;20640;-79
2024/03/24 04:15:40;;;;;;;;;;;;;;;8.06;94.78;94006.38;10381199;28;20980;-79
2024/03/24 04:20:40;;;;;;;;;;;;;;;8.15;95.44;93990.53;10372473;28;20007;-78
2024/03/24 04:25:40;;;;;;;;;;;;;;;8.19;89.88;93997.78;10384213;28;19928;-79
2024/03/24 04:30:40;;;;;;;;;;;;;;;8.17;91.74;94002.59;10382783;28;19976;-78
2024/03/24 04:35:41;;;;;;;;;;;;;;;7.60;99.48;94007.38;10379063;28;19917;-79
2024/03/24 04:40:41;;;;;;;;;;;;;;;7.74;100.00;94004.13;10385198;28;19929;-79
2024/03/24 04:45:42;;;;;;;;;;;;;;;7.65;100.00;94022.63;10376150;28;20018;-79
2024/03/24 04:50:43;;;;;;;;;;;;;;;7.57;100.00;94031.19;10361788;28;19928;-77
2024/03/24 04:55:44;;;;;;;;;;;;;;;7.70;100.00;94031.41;10376627;28;20007;-78
2024/03/24 05:00:44;;;;;;;;;;;;;;;7.68;100.00;94033.56;10379599;28;19917;-81
2024/03/24 05:05:45;;;;;;;;;;;;;;;7.79;100.00;94044.25;10372675;28;19913;-76
2024/03/24 05:10:46;;;;;;;;;;;;;;;7.68;100.00;94038.09;10368346;28;19921;-77
2024/03/24 05:15:50;;;;;;;;;;;;;;;7.86;100.00;94039.41;10370612;28;20282;-77
2024/03/24 05:20:50;;;;;;;;;;;;;;;7.91;100.00;94034.03;10367335;28;19964;-78
2024/03/24 05:25:53;;;;;;;;;;;;;;;8.11;100.00;94022.44;10350055;28;20267;-77
2024/03/24 05:30:54;;;;;;;;;;;;;;;8.22;100.00;94023.19;10367390;28;20673;-77
2024/03/24 05:35:58;;;;;;;;;;;;;;;8.87;91.84;94027.63;10366617;28;19921;-77
2024/03/24 05:40:59;;;;;;;;;;;;;;;9.70;86.10;94019.66;10347652;28;20540;-76
2024/03/24 05:45:59;;;;;;;;;;;;;;;10.34;80.62;94022.09;10366006;28;19925;-76
2024/03/24 05:51:03;;;;;;;;;;;;;;;10.98;76.88;94025.25;10363919;28;19936;-81
2024/03/24 05:56:04;;;;;;;;;;;;;;;12.13;65.38;94015.69;10364014;28;19925;-76
2024/03/24 06:01:05;;;;;;;;;;;;;;;12.58;57.88;94014.22;10366466;28;20022;-73
2024/03/24 06:06:05;;;;;;;;;;;;;;;13.06;56.86;94013.69;10353863;28;19917;-75
2024/03/24 06:11:05;;;;;;;;;;;;;;;13.43;55.35;94008.22;10355778;28;20338;-90
2024/03/24 06:16:05;;;;;;;;;;;;;;;14.23;52.04;94002.81;10373571;28;19971;-76
2024/03/24 06:21:06;;;;;;;;;;;;;;;14.81;49.80;94002.81;10379102;28;19995;-75
2024/03/24 06:26:07;;;;;;;;;;;;;;;15.93;48.59;93994.03;10376572;28;19923;-75
2024/03/24 06:31:07;;;;;;;;;;;;;;;16.84;46.12;93997.19;10352732;28;19920;-75
2024/03/24 06:36:07;;;;;;;;;;;;;;;17.17;45.59;93982.09;10368874;28;19917;-75
2024/03/24 06:41:07;;;;;;;;;;;;;;;17.20;45.47;93984.13;10368802;28;19926;-75
2024/03/24 06:46:08;;;;;;;;;;;;;;;16.66;45.18;93984.84;10366742;28;19932;-74
2024/03/24 06:51:08;;;;;;;;;;;;;;;17.43;43.40;93979.16;10370385;28;19932;-82
2024/03/24 06:56:09;;;;;;;;;;;;;;;17.99;44.07;93977.91;10372242;28;19917;-72
2024/03/24 07:01:09;;;;;;;;;;;;;;;18.75;41.58;93981.84;10376261;28;19943;-84
2024/03/24 07:06:12;;;;;;;;;;;;;;;19.64;40.63;93980.03;10383007;28;19920;-88
2024/03/24 07:11:14;;;;;;;;;;;;;;;20.65;37.80;93971.59;10367198;28;19921;-81
2024/03/24 07:16:15;;;;;;;;;;;;;;;21.61;35.69;93954.81;10374934;28;19959;-75
2024/03/24 07:21:17;;;;;;;;;;;;;;;21.48;36.73;93954.19;10382573;28;19921;-89
2024/03/24 07:26:17;;;;;;;;;;;;;;;21.98;35.30;93954.31;10383352;28;19921;-83
2024/03/24 07:31:18;;;;;;;;;;;;;;;22.84;34.03;93943.91;10359834;28;19928;-75
2024/03/24 07:36:18;;;;;;;;;;;;;;;23.63;33.23;93932.31;10374722;28;19913;-76
2024/03/24 07:41:19;;;;;;;;;;;;;;;24.37;31.30;93906.69;10374231;28;19948;-78
2024/03/24 07:46:19;;;;;;;;;;;;;;;25.09;29.86;93900.84;10378282;28;20288;-80
2024/03/24 07:51:19;;;;;;;;;;;;;;;25.21;30.40;93896.94;10375038;28;19917;-79
2024/03/24 07:56:19;;;;;;;;;;;;;;;24.99;30.37;93905.13;10373663;28;19967;-83
2024/03/24 08:01:23;;;;;;;;;;;;;;;25.09;29.92;93909.09;10380472;28;20410;-80
2024/03/24 08:06:23;;;;;;;;;;;;;;;25.95;28.89;93894.75;10377853;28;20019;-81
2024/03/24 08:11:23;;;;;;;;;;;;;;;26.00;28.96;93891.63;10376410;28;19909;-76
2024/03/24 08:16:23;;;;;;;;;;;;;;;26.49;28.56;93874.72;10372092;28;19978;-76
2024/03/24 08:21:24;;;;;;;;;;;;;;;25.28;29.90;93880.47;10371736;28;20040;-74
2024/03/24 08:26:24;;;;;;;;;;;;;;;23.80;31.32;93887.00;10375302;28;20364;-75
2024/03/24 08:31:24;;;;;;;;;;;;;;;22.49;34.18;93873.00;10375393;28;20058;-75
2024/03/24 08:36:25;;;;;;;;;;;;;;;20.46;35.88;93876.03;10371622;28;20395;-74
2024/03/24 08:41:25;;;;;;;;;;;;;;;20.87;35.59;93860.09;10367875;28;20296;-74
2024/03/24 08:46:27;;;;;;;;;;;;;;;21.31;35.79;93846.09;10373058;28;19951;-75
2024/03/24 08:51:27;;;;;;;;;;;;;;;23.41;32.08;93843.56;10372806;28;20585;-74
2024/03/24 08:56:27;;;;;;;;;;;;;;;23.08;32.24;93836.91;10345067;28;19916;-75
2024/03/24 09:01:28;;;;;;;;;;;;;;;21.49;34.48;93830.00;10359944;28;20098;-75
2024/03/24 09:06:28;;;;;;;0.00;0.00;;;;;;;20.19;38.29;93821.28;10358313;28;20399;-74
2024/03/24 09:11:28;;;;;;;0.00;0.00;;;;;;;20.11;37.02;93814.06;10364059;28;20148;-75
2024/03/24 09:16:29;;;;;;;0.00;0.00;;;;;;;20.38;37.22;93812.28;10362047;28;20080;-75
2024/03/24 09:21:29;;;;;;;0.00;0.00;;;;;;;20.73;36.16;93805.22;10365555;28;20832;-74
2024/03/24 09:26:29;;;;;;;0.00;0.00;;;;;;;20.86;38.00;93803.91;10351098;28;20120;-76
2024/03/24 09:31:30;;;;;;;0.00;0.00;;;;;;;20.89;36.36;93796.91;10365387;28;20087;-76
2024/03/24 09:36:30;;;;;;;0.00;0.00;;;;;;;20.82;34.20;93792.13;10364542;28;20026;-76
2024/03/24 09:41:31;;;;;;;0.00;0.00;;;;;;;20.23;35.37;93791.31;10364945;28;20034;-76
2024/03/24 09:46:32;;;;;;;0.00;0.00;;;;;;;21.11;34.69;93763.41;10372724;28;20060;-75
2024/03/24 09:51:33;;;;;;;0.00;0.00;;;;;;;23.93;32.14;93759.34;10374872;28;20026;-75
2024/03/24 09:56:35;;;;;;;0.00;0.00;;;;;;;25.91;28.85;93742.56;10373431;28;20025;-75
2024/03/24 10:01:38;;;;;;;0.00;0.00;;;;;;;28.88;25.21;93717.97;10373883;28;20125;-76
2024/03/24 10:06:38;;;;;;;0.00;0.00;;;;;;;31.08;24.21;93716.94;10372492;28;20037;-74
2024/03/24 10:11:38;;;;;;;0.00;0.00;;;;;;;33.07;20.34;93689.56;10368562;28;20025;-75
2024/03/24 10:16:39;;;;;;;0.00;0.00;;;;;;;34.27;19.14;93684.47;10373251;28;20033;-75
2024/03/24 10:21:39;;;;;;;0.00;0.00;;;;;;;34.80;19.18;93680.97;10372880;28;20026;-75
2024/03/24 10:26:40;;;;;;;0.00;0.00;;;;;;;32.92;20.29;93664.97;10370998;28;20948;-75
2024/03/24 10:31:40;;;;;;;0.00;0.00;;;;;;;32.45;20.77;93666.28;10372233;28;20518;-75
2024/03/24 10:36:43;;;;;;;0.00;0.00;;;;;;;31.65;20.23;93680.72;10372023;28;20099;-74
2024/03/24 10:41:44;;;;;;;0.00;0.00;;;;;;;30.90;21.27;93670.13;10369126;28;20152;-74
2024/03/24 10:46:46;;;;;;;0.00;0.00;;;;;;;31.77;20.28;93666.09;10328311;28;20081;-75
2024/03/24 10:51:49;;;;;;;0.00;0.00;;;;;;;30.77;21.29;93658.94;10330870;28;20790;-75
2024/03/24 10:56:49;;;;;;;0.00;0.00;;;;;;;30.56;21.21;93649.09;10327544;28;20429;-74
2024/03/24 11:01:50;;;;;;;0.00;0.00;;;;;;;27.96;23.17;93646.81;10331383;28;20058;-75
2024/03/24 11:06:51;;;;;;;0.00;0.00;;;;;;;28.27;22.62;93658.72;10329555;28;20029;-76
2024/03/24 11:11:51;;;;;;;0.00;0.00;;;;;;;29.02;22.44;93650.59;10329447;28;20105;-76
2024/03/24 11:16:55;;;;;;;0.00;0.00;;;;;;;28.57;23.05;93651.59;10328114;28;20037;-75
2024/03/24 11:21:59;;;;;;;0.00;0.00;;;;;;;29.65;22.17;93632.59;10327661;28;20752;-75
2024/03/24 11:26:59;;;;;;;0.00;0.00;;;;;;;28.32;22.39;93610.50;10329184;28;20057;-75
2024/03/24 11:32:00;;;;;;;0.00;0.00;;;;;;;26.48;23.67;93611.38;10327152;28;20030;-75
2024/03/24 11:37:01;;;;;;;0.00;0.00;;;;;;;24.09;26.90;93612.78;10328404;28;20049;-74
2024/03/24 11:42:11;;;;;;;0.00;0.00;;;;;;;21.97;28.00;93616.22;10328086;28;20115;-75
2024/03/24 11:47:11;;;;;;;0.00;0.00;;;;;;;21.09;29.06;93615.44;10361510;28;20637;-75
2024/03/24 11:52:15;;;;;;;0.00;0.00;;;;;;;20.79;29.27;93604.41;10350666;28;20026;-74
2024/03/24 11:57:18;;;;;;;0.00;0.00;;;;;;;20.61;31.22;93607.63;10366996;28;20280;-75
2024/03/24 12:02:20;;;;;;;0.00;0.00;;;;;;;20.47;30.66;93602.72;10374342;28;20484;-74
2024/03/24 12:07:21;;;;;;;0.00;0.00;;;;;;;20.24;31.45;93599.97;10375424;28;20095;-74
2024/03/24 12:12:22;;;;;;;0.00;0.00;;;;;;;19.98;31.53;93582.38;10371265;28;20025;-75
2024/03/24 12:17:23;;;;;;;0.00;0.00;;;;;;;19.83;31.82;93568.81;10355297;28;20033;-74
2024/03/24 12:22:23;;;;;;;0.00;0.00;;;;;;;20.20;32.47;93557.41;10366745;28;20073;-75
2024/03/24 12:27:24;;;;;;;0.00;0.00;;;;;;;19.88;32.97;93561.13;10368172;28;20257;-74
2024/03/24 12:32:25;;;;;;;0.00;0.00;;;;;;;20.53;33.26;93562.25;10366134;28;20033;-74
2024/03/24 12:37:27;;;;;;;0.00;0.00;;;;;;;20.29;31.33;93560.72;10363552;28;20028;-75
2024/03/24 12:42:28;;;;;;;0.00;0.00;;;;;;;20.42;32.05;93545.72;10367075;28;20036;-74
2024/03/24 12:47:28;;;;;;;0.00;0.00;;;;;;;20.49;31.86;93545.03;10366738;28;20041;-73
2024/03/24 12:52:29;;;;;;;0.00;0.00;;;;;;;20.32;31.92;93549.06;10365662;28;20272;-74
2024/03/24 12:57:31;;;;;;;0.00;0.00;;;;;;;19.89;32.83;93521.81;10366551;28;20022;-74
2024/03/24 13:02:31;;;;;;;0.00;0.00;;;;;;;20.23;33.26;93515.78;10365413;28;20033;-74
2024/03/24 13:07:32;;;;;;;0.00;0.00;;;;;;;20.56;33.51;93495.25;10365740;28;20028;-74
2024/03/24 13:12:32;;;;;;;0.00;0.00;;;;;;;20.47;32.15;93492.75;10346652;28;20157;-74
2024/03/24 13:17:34;;;;;;;0.00;0.00;;;;;;;20.45;32.11;93476.75;10363936;28;20033;-74
2024/03/24 13:22:34;;;;;;;0.00;0.00;;;;;;;20.76;31.53;93468.63;10363939;28;20288;-74
2024/03/24 13:27:59;;;;;;;0.00;0.00;;;;;;;20.11;31.48;93475.84;10361354;28;20021;-75
2024/03/24 13:33:00;;;;;;;0.00;0.00;;;;;;;20.03;33.05;93464.00;10364595;28;20045;-74
2024/03/24 13:38:25;;;;;;;0.00;0.00;;;;;;;19.72;32.33;93465.81;10362698;28;20033;-73
2024/03/24 13:44:04;;;;;;;0.00;0.00;;;;;;;19.57;32.06;93461.25;10363656;28;20543;-73
2024/03/24 13:49:04;;;;;;;0.00;0.00;;;;;;;19.52;31.42;93448.72;10363717;28;20044;-73
2024/03/24 13:54:07;;;;;;;0.00;0.00;;;;;;;19.40;31.85;93443.41;10364182;28;20037;-73
2024/03/24 13:59:07;;;;;;;0.00;0.00;;;;;;;19.46;31.97;93436.50;10366309;28;20391;-73
2024/03/24 14:04:07;;;;;;;0.00;0.00;;;;;;;19.46;31.81;93436.50;10372379;28;20033;-73
2024/03/24 14:09:09;;;;;;;0.00;0.00;;;;;;;19.41;31.51;93437.59;10363176;28;20475;-73
2024/03/24 14:14:24;;;;;;;0.00;0.00;;;;;;;19.43;31.64;93423.63;10364137;28;20072;-74
2024/03/24 14:19:31;;;;;;;0.00;0.00;;;;;;;19.46;31.18;93422.88;10363156;28;20418;-73
2024/03/24 14:24:58;;;;;;;0.00;0.00;;;;;;;19.38;31.30;93413.00;10345243;28;20037;-74
2024/03/24 14:29:58;;;;;;;0.00;0.00;;;;;;;19.40;32.28;93414.22;10363355;28;20520;-74
2024/03/24 14:34:59;;;;;;;0.00;0.00;;;;;;;19.28;32.77;93406.22;10343402;28;20029;-75
2024/03/24 14:40:36;;;;;;;0.00;0.00;;;;;;;19.09;32.82;93407.03;10368011;28;20087;-73
2024/03/24 14:46:14;;;;;;;0.00;0.00;;;;;;;18.62;33.26;93412.28;10361943;28;20421;-74
2024/03/24 14:51:14;;;;;;;0.00;0.00;;;;;;;18.44;33.88;93417.34;10338238;28;20106;-74
2024/03/24 14:56:15;;;;;;;0.00;0.00;;;;;;;18.22;34.24;93410.66;10360867;28;20042;-73
2024/03/24 15:01:15;;;;;;;0.00;0.00;;;;;;;18.06;34.12;93399.81;10349153;28;20052;-73
2024/03/24 15:06:16;;;;;;;0.00;0.00;;;;;;;18.01;34.24;93391.13;10378358;28;20471;-74
2024/03/24 15:11:16;;;;;;;0.00;0.00;;;;;;;18.02;34.65;93385.34;10377233;28;20029;-73
2024/03/24 15:16:16;;;;;;;0.00;0.00;;;;;;;18.05;35.13;93386.56;10372663;28;20033;-74
2024/03/24 15:21:17;;;;;;;0.00;0.00;;;;;;;18.04;35.51;93393.13;10363062;28;20303;-73
2024/03/24 15:26:17;;;;;;;0.00;0.00;;;;;;;17.82;35.76;93384.47;10361722;28;20040;-72
2024/03/24 15:31:17;;;;;;;0.00;0.00;;;;;;;17.72;35.81;93384.97;10375751;28;20380;-73
2024/03/24 15:36:18;;;;;;;0.00;0.00;;;;;;;17.88;36.35;93369.47;10352545;28;20088;-73
2024/03/24 15:41:18;;;;;;;0.00;0.00;;;;;;;17.80;35.78;93372.38;10356758;28;20450;-75
2024/03/24 15:46:23;;;;;;;0.00;0.00;;;;;;;17.70;35.66;93384.56;10371769;28;20821;-73
2024/03/24 15:51:25;;;;;;;0.00;0.00;;;;;;;17.77;35.97;93373.84;10370797;28;20778;-74
2024/03/24 15:56:37;;;;;;;0.00;0.00;;;;;;;17.57;36.17;93373.78;10364679;28;20095;-73
2024/03/24 16:01:45;;;;;;;0.00;0.00;;;;;;;17.41;37.18;93392.00;10368468;28;20030;-75
2024/03/24 16:06:46;;;;;;;1.17;0.05;;;;;;;16.80;39.95;93421.00;10373875;28;20526;-74
2024/03/24 16:11:50;;;;;;;0.00;0.00;;;;;;;16.25;49.30;93403.50;10354452;28;20044;-74
2024/03/24 16:16:52;;;;;;;0.00;0.00;;;;;;;15.87;67.51;93390.00;10357106;28;20111;-73
2024/03/24 16:22:01;;;;;;;0.00;0.00;;;;;;;15.69;71.30;93378.56;10374999;28;20037;-75
2024/03/24 16:27:02;;;;;;;0.00;0.00;;;;;;;15.57;58.55;93383.19;10375896;28;20068;-76
2024/03/24 16:32:03;;;;;;;0.45;0.00;;;;;;;15.64;55.18;93415.91;10378453;28;20124;-75
2024/03/24 16:37:03;;;;;;;0.00;0.00;;;;;;;15.21;63.75;93401.78;10365166;28;20153;-79
2024/03/24 16:42:13;;;;;;;0.00;0.00;;;;;;;14.53;88.31;93419.84;10379792;28;20396;-91
2024/03/24 16:47:13;;;;;;;0.00;0.00;;;;;;;14.51;100.00;93413.19;10337826;28;20046;-85
2024/03/24 16:52:13;;;;;;;0.00;0.00;;;;;;;14.37;79.92;93410.75;10334644;28;20040;-75
2024/03/24 16:57:14;;;;;;;0.00;0.00;;;;;;;14.52;72.68;93401.25;10318365;28;20022;-78
2024/03/24 17:02:17;;;;;;;0.00;0.00;;;;;;;14.81;72.67;93392.28;10321217;28;20528;-77
2024/03/24 17:07:17;;;;;;;0.00;0.00;;;;;;;14.99;70.87;93381.31;10322378;28;20334;-72
2024/03/24 17:12:17;;;;;;;0.00;0.00;;;;;;;14.99;67.78;93373.19;10319103;28;20738;-74
2024/03/24 17:17:18;;;;;;;0.00;0.00;;;;;;;15.06;71.03;93370.72;10319672;28;20523;-72
2024/03/24 17:22:18;;;;;;;0.00;0.00;;;;;;;15.09;73.80;93374.69;10319546;28;20038;-73
2024/03/24 17:27:19;;;;;;;0.00;0.00;;;;;;;14.97;80.41;93395.16;10323223;28;20105;-74
2024/03/24 17:32:19;;;;;;;0.00;0.00;;;;;;;14.89;73.74;93398.75;10321695;28;20516;-73
2024/03/24 17:37:20;;;;;;;0.00;0.00;;;;;;;14.81;64.56;93405.81;10320665;28;20750;-74
2024/03/24 17:42:21;;;;;;;0.00;0.00;;;;;;;14.93;62.58;93415.91;10317413;28;20355;-74
2024/03/24 17:47:21;;;;;;;0.00;0.00;;;;;;;14.63;66.54;93415.19;10358535;28;20131;-74
2024/03/24 17:52:22;;;;;;;0.00;0.00;;;;;;;13.97;93.11;93398.47;10363909;28;20037;-83
2024/03/24 17:57:22;;;;;;;0.00;0.00;;;;;;;14.16;99.68;93389.13;10367261;28;20037;-77
2024/03/24 18:02:22;;;;;;;0.00;0.00;;;;;;;14.10;94.64;93388.53;10371507;28;20288;-77
2024/03/24 18:12:42;;;;;;;0.00;0.00;;;;;;;14.42;92.66;93380.81;10375081;28;20041;-77
2024/03/24 18:17:42;;;;;;;0.00;0.00;;;;;;;14.56;97.24;93369.75;10339410;28;20033;-78
2024/03/24 18:22:44;;;;;;;0.00;0.00;;;;;;;14.60;95.34;93367.19;10363483;28;20741;-75
2024/03/24 18:27:45;;;;;;;0.00;0.00;;;;;;;14.53;93.61;93390.09;10365481;28;20029;-77
2024/03/24 18:32:51;;;;;;;0.00;0.00;;;;;;;14.52;96.17;93395.84;10360889;28;20049;-76
2024/03/24 18:37:52;;;;;;;0.00;0.00;;;;;;;14.42;100.00;93407.84;10365816;28;20029;-77
2024/03/24 18:42:53;;;;;;;0.00;0.00;;;;;;;14.41;100.00;93425.19;10355570;28;20033;-77
2024/03/24 18:47:53;;;;;;;0.00;0.00;;;;;;;14.30;100.00;93429.41;10355962;28;20284;-76
2024/03/24 18:52:55;;;;;;;0.00;0.00;;;;;;;13.77;100.00;93447.81;10357013;28;20021;-77
2024/03/24 18:57:56;;;;;;;0.00;0.00;;;;;;;12.81;100.00;93465.81;10363626;28;20041;-76
2024/03/24 19:02:59;;;;;;;0.00;0.00;;;;;;;11.82;100.00;93473.56;10375617;28;20026;-78
2024/03/24 19:07:59;;;;;;;0.00;0.00;;;;;;;10.79;100.00;93479.69;10375825;28;20029;-76
2024/03/24 19:13:00;;;;;;;0.00;0.00;;;;;;;10.05;100.00;93475.38;10371697;28;20492;-76
2024/03/24 19:18:00;;;;;;;0.00;0.00;;;;;;;9.75;100.00;93485.63;10383911;28;20294;-81
2024/03/24 19:23:01;;;;;;;0.00;0.00;;;;;;;9.26;100.00;93498.59;10387126;28;20483;-77
2024/03/24 19:28:02;;;;;;;0.00;0.00;;;;;;;9.09;100.00;93501.06;10364495;28;20120;-82
2024/03/24 19:33:02;;;;;;;0.95;0.00;;;;;;;8.52;100.00;93502.72;10379749;28;20023;-88
2024/03/24 19:38:05;;;;;;;0.88;0.00;;;;;;;8.06;100.00;93524.72;10362846;28;20037;-82
2024/03/24 19:43:05;;;;;;;0.00;0.00;;;;;;;7.56;100.00;93522.34;10379074;28;20187;-84
2024/03/24 19:48:06;;;;;;;0.15;0.00;;;;;;;7.24;100.00;93531.78;10386133;28;20099;-82
2024/03/24 19:53:13;;;;;;;0.00;0.00;;;;;;;7.24;100.00;93531.78;10380087;28;20511;-80
2024/03/24 19:58:13;;;;;;;0.00;0.00;;;;;;;7.19;100.00;93529.94;10379068;28;20116;-80
2024/03/24 20:03:14;;;;;;;0.00;0.00;;;;;;;7.16;100.00;93537.72;10393132;28;20474;-85
2024/03/24 20:08:14;;;;;;;0.00;0.00;;;;;;;7.21;100.00;93526.97;10381127;28;20790;-78
2024/03/24 20:13:15;;;;;;;0.00;0.00;;;;;;;7.23;100.00;93513.34;10373245;28;20094;-77
2024/03/24 20:18:15;;;;;;;0.00;0.00;;;;;;;7.22;100.00;93504.53;10375426;28;20029;-78
2024/03/24 20:23:18;;;;;;;0.00;0.00;;;;;;;7.15;100.00;93515.53;10391307;28;20029;-79
2024/03/24 20:28:19;;;;;;;0.00;0.00;;;;;;;7.16;100.00;93511.00;10397542;28;20457;-79
2024/03/24 20:33:20;;;;;;;0.00;0.00;;;;;;;7.03;100.00;93511.66;10383097;28;20033;-78
2024/03/24 20:38:22;;;;;;;0.00;0.00;;;;;;;6.94;100.00;93528.28;10388184;28;20079;-81
2024/03/24 20:43:23;;;;;;;0.10;0.00;;;;;;;6.94;100.00;93516.81;10391296;28;20045;-81
2024/03/24 20:48:24;;;;;;;0.00;0.00;;;;;;;6.98;100.00;93515.19;10373057;28;20476;-82
2024/03/24 20:53:26;;;;;;;0.00;0.00;;;;;;;6.87;100.00;93501.09;10388487;28;20512;-81
2024/03/24 20:58:31;;;;;;;0.00;0.00;;;;;;;6.76;100.00;93495.03;10390836;28;20082;-82
2024/03/24 21:03:32;;;;;;;0.00;0.00;;;;;;;6.91;100.00;93486.13;10391250;28;20029;-82
2024/03/24 21:08:32;;;;;;;0.00;0.00;;;;;;;7.06;100.00;93477.19;10390187;28;20022;-80
2024/03/24 21:13:33;;;;;;;0.00;0.00;;;;;;;7.10;100.00;93459.50;10389066;28;20025;-81
2024/03/24 21:18:34;;;;;;;0.00;0.00;;;;;;;7.15;100.00;93455.97;10388833;28;21216;-80
2024/03/24 21:23:35;;;;;;;0.00;0.00;;;;;;;7.45;100.00;93424.63;10372477;28;20342;-80
2024/03/24 21:28:35;;;;;;;0.00;0.00;;;;;;;7.70;100.00;93415.50;10391593;28;20435;-81
2024/03/24 21:33:36;;;;;;;0.00;0.00;;;;;;;7.82;100.00;93420.44;10390281;28;20067;-80
2024/03/24 21:43:55;;;;;;;0.00;0.00;;;;;;;7.32;100.00;93394.06;10378848;28;20053;-81
2024/03/24 21:48:56;;;;;;;0.00;0.00;;;;;;;6.91;100.00;93406.00;10388903;28;20021;-80
2024/03/24 21:53:56;;;;;;;0.00;0.00;;;;;;;7.23;100.00;93406.44;10388049;28;20025;-80
2024/03/24 21:58:56;;;;;;;0.00;0.00;;;;;;;7.50;100.00;93411.22;10387737;28;20662;-80
2024/03/24 22:03:57;;;;;;;0.00;0.00;;;;;;;7.63;100.00;93399.84;10388629;28;20268;-82
2024/03/24 22:08:57;;;;;;;0.00;0.00;;;;;;;7.83;100.00;93392.63;10389009;28;20080;-82
2024/03/24 22:13:58;;;;;;;0.00;0.00;;;;;;;7.94;100.00;93383.38;10370422;28;20041;-80
2024/03/24 22:18:58;;;;;;;0.00;0.00;;;;;;;8.03;100.00;93394.97;10389153;28;20518;-80
2024/03/24 22:23:58;;;;;;;0.00;0.00;;;;;;;8.20;100.00;93396.34;10365970;28;20056;-81
2024/03/24 22:29:04;;;;;;;0.00;0.00;;;;;;;8.12;100.00;93397.81;10384269;28;20029;-81
2024/03/24 22:34:04;;;;;;;0.00;0.00;;;;;;;7.89;100.00;93396.03;10373769;28;20495;-81
2024/03/24 22:39:04;;;;;;;0.00;0.00;;;;;;;7.78;100.00;93396.16;10387725;28;21289;-80
2024/03/24 22:44:05;;;;;;;0.00;0.00;;;;;;;7.44;100.00;93399.00;10387111;28;20056;-81
2024/03/24 22:49:05;;;;;;;0.00;0.00;;;;;;;7.40;100.00;93430.06;10390019;28;20295;-81
2024/03/24 22:54:05;;;;;;;0.00;0.00;;;;;;;7.22;100.00;93437.72;10393773;28;20678;-81
2024/03/24 22:59:06;;;;;;;0.00;0.00;;;;;;;7.06;100.00;93444.31;10377536;28;20033;-80
2024/03/24 23:04:08;;;;;;;0.00;0.00;;;;;;;6.84;100.00;93453.59;10375515;28;20315;-80
2024/03/24 23:09:15;;;;;;;0.00;0.00;;;;;;;6.51;100.00;93469.34;10397629;28;20041;-81
2024/03/24 23:14:15;;;;;;;0.00;0.00;;;;;;;5.73;100.00;93468.97;10394186;28;20025;-81
2024/03/24 23:19:15;;;;;;;0.00;0.00;;;;;;;5.45;100.00;93495.22;10375528;28;20025;-81
2024/03/24 23:24:17;;;;;;;0.00;0.00;;;;;;;5.42;100.00;93492.31;10392120;28;20025;-80
2024/03/24 23:29:18;;;;;;;0.00;0.00;;;;;;;5.24;100.00;93505.13;10406201;28;20036;-80
2024/03/24 23:34:18;;;;;;;0.00;0.00;;;;;;;5.07;100.00;93500.09;10392960;28;20486;-80
2024/03/24 23:39:18;;;;;;;0.00;0.00;;;;;;;4.82;100.00;93497.47;10392515;28;20435;-82
2024/03/24 23:44:19;;;;;;;0.00;0.00;;;;;;;4.59;100.00;93510.25;10390724;28;20296;-83
2024/03/24 23:49:19;;;;;;;0.00;0.00;;;;;;;4.51;100.00;93508.09;10392403;28;20041;-81
2024/03/24 23:54:20;;;;;;;0.00;0.00;;;;;;;4.40;100.00;93515.31;10374537;28;20022;-82
2024/03/24 23:59:20;;;;;;;0.00;0.00;;;;;;;4.44;100.00;93513.72;10390359;28;20051;-81
